createdAt,value
2022-08-17T00:01:51.467Z,34.80
2022-08-17T00:04:20.094Z,34.90
2022-08-17T00:06:49.353Z,35.00
2022-08-17T00:09:18.303Z,34.40
2022-08-17T00:12:34.754Z,35.00
2022-08-17T00:14:36.987Z,35.00
2022-08-17T00:17:06.425Z,35.00
2022-08-17T00:19:34.081Z,35.00
2022-08-17T00:22:34.266Z,35.00
2022-08-17T00:24:50.633Z,35.10
2022-08-17T00:27:18.730Z,35.00
2022-08-17T00:29:46.239Z,35.10
2022-08-17T00:33:12.286Z,35.10
2022-08-17T00:35:08.243Z,35.10
2022-08-17T00:37:35.593Z,35.20
2022-08-17T00:40:04.246Z,35.00
2022-08-17T00:42:31.493Z,35.10
2022-08-17T00:44:59.096Z,35.10
2022-08-17T00:47:26.485Z,34.50
2022-08-17T00:49:54.051Z,35.30
2022-08-17T00:52:30.356Z,35.20
2022-08-17T00:54:58.382Z,35.30
2022-08-17T00:57:54.746Z,35.30
2022-08-17T01:00:28.950Z,35.20
2022-08-17T01:03:25.400Z,35.90
2022-08-17T01:05:57.901Z,35.30
2022-08-17T01:08:29.618Z,35.30
2022-08-17T01:11:04.157Z,35.30
2022-08-17T01:13:41.416Z,35.30
2022-08-17T01:16:23.134Z,35.40
2022-08-17T01:18:54.958Z,35.50
2022-08-17T01:21:43.618Z,35.50
2022-08-17T01:24:11.288Z,35.50
2022-08-17T01:26:42.051Z,35.50
2022-08-17T01:29:10.366Z,35.40
2022-08-17T01:31:54.087Z,35.40
2022-08-17T01:34:21.782Z,35.60
2022-08-17T01:36:50.356Z,35.50
2022-08-17T01:39:25.855Z,35.50
2022-08-17T01:42:04.634Z,35.60
2022-08-17T01:44:31.709Z,35.60
2022-08-17T01:46:58.668Z,35.60
2022-08-17T01:49:28.075Z,35.60
2022-08-17T01:51:55.913Z,35.60
2022-08-17T01:54:25.106Z,35.60
2022-08-17T01:56:52.985Z,35.70
2022-08-17T01:59:20.885Z,35.70
2022-08-17T02:01:48.309Z,35.70
2022-08-17T02:04:15.629Z,35.70
2022-08-17T02:06:54.091Z,35.70
2022-08-17T02:09:29.961Z,35.70
2022-08-17T02:12:00.034Z,35.80
2022-08-17T02:14:47.110Z,35.60
2022-08-17T02:17:14.096Z,35.60
2022-08-17T02:19:41.253Z,35.70
2022-08-17T02:22:09.005Z,35.80
2022-08-17T02:24:58.485Z,35.80
2022-08-17T02:27:26.079Z,35.80
2022-08-17T02:29:52.988Z,35.90
2022-08-17T02:32:27.390Z,35.80
2022-08-17T02:34:59.817Z,35.90
2022-08-17T02:37:29.855Z,35.90
2022-08-17T02:39:58.772Z,36.20
2022-08-17T02:42:44.522Z,35.80
2022-08-17T02:45:19.455Z,36.00
2022-08-17T02:47:46.958Z,36.30
2022-08-17T02:50:17.772Z,35.80
2022-08-17T02:52:53.249Z,35.90
2022-08-17T02:55:34.338Z,35.80
2022-08-17T02:58:03.752Z,35.90
2022-08-17T03:00:41.017Z,35.90
2022-08-17T03:03:10.965Z,36.00
2022-08-17T03:05:39.495Z,36.00
2022-08-17T03:08:07.571Z,36.00
2022-08-17T03:10:40.928Z,36.20
2022-08-17T03:13:08.853Z,36.20
2022-08-17T03:15:36.461Z,35.50
2022-08-17T03:18:07.932Z,36.30
2022-08-17T03:20:46.316Z,36.20
2022-08-17T03:23:13.245Z,36.30
2022-08-17T03:25:44.080Z,36.30
2022-08-17T03:28:13.513Z,36.50
2022-08-17T03:30:40.650Z,36.40
2022-08-17T03:33:12.356Z,36.50
2022-08-17T03:35:41.404Z,36.60
2022-08-17T03:38:12.582Z,35.90
2022-08-17T03:40:57.941Z,36.70
2022-08-17T03:43:29.666Z,36.70
2022-08-17T03:46:34.266Z,36.70
2022-08-17T03:49:24.999Z,36.20
2022-08-17T03:52:12.336Z,36.80
2022-08-17T03:54:59.381Z,36.70
2022-08-17T03:57:27.880Z,36.80
2022-08-17T03:59:55.773Z,36.90
2022-08-17T04:02:28.638Z,36.90
2022-08-17T04:04:55.885Z,37.00
2022-08-17T04:07:28.699Z,37.10
2022-08-17T04:09:56.040Z,37.10
2022-08-17T04:12:26.175Z,37.10
2022-08-17T04:14:54.880Z,37.20
2022-08-17T04:17:29.117Z,37.20
2022-08-17T04:19:57.241Z,37.40
2022-08-17T04:22:32.344Z,37.30
2022-08-17T04:25:18.059Z,37.40
2022-08-17T04:27:45.222Z,37.40
2022-08-17T04:30:13.085Z,36.80
2022-08-17T04:33:07.394Z,37.50
2022-08-17T04:35:47.557Z,37.70
2022-08-17T04:38:18.392Z,37.70
2022-08-17T04:41:04.646Z,37.60
2022-08-17T04:43:34.054Z,37.60
2022-08-17T04:46:17.639Z,37.70
2022-08-17T04:48:54.364Z,38.00
2022-08-17T04:51:33.049Z,38.00
2022-08-17T04:54:11.416Z,38.00
2022-08-17T04:56:39.401Z,37.90
2022-08-17T04:59:12.272Z,37.30
2022-08-17T05:01:43.882Z,38.40
2022-08-17T05:04:33.836Z,38.00
2022-08-17T05:07:03.141Z,38.00
2022-08-17T05:09:30.158Z,38.00
2022-08-17T05:12:02.334Z,38.00
2022-08-17T05:14:33.046Z,38.20
2022-08-17T05:17:01.503Z,38.10
2022-08-17T05:19:31.016Z,38.10
2022-08-17T05:22:01.156Z,38.10
2022-08-17T05:24:42.578Z,38.30
2022-08-17T05:27:18.981Z,38.30
2022-08-17T05:29:46.229Z,38.20
2022-08-17T05:32:38.642Z,38.30
2022-08-17T05:35:01.545Z,38.30
2022-08-17T05:37:28.609Z,38.90
2022-08-17T05:39:55.699Z,38.30
2022-08-17T05:42:23.208Z,38.30
2022-08-17T05:44:50.224Z,37.60
2022-08-17T05:47:18.311Z,38.30
2022-08-17T05:49:45.360Z,38.40
2022-08-17T05:52:54.273Z,38.40
2022-08-17T05:55:42.522Z,38.70
2022-08-17T05:58:21.087Z,37.80
2022-08-17T06:01:10.604Z,38.60
2022-08-17T06:04:01.100Z,38.60
2022-08-17T06:06:40.956Z,38.80
2022-08-17T06:09:26.639Z,38.70
2022-08-17T06:13:12.378Z,38.60
2022-08-17T06:16:33.594Z,38.00
2022-08-17T06:19:01.125Z,38.80
2022-08-17T06:21:38.009Z,39.70
2022-08-17T06:24:42.468Z,38.90
2022-08-17T06:27:37.001Z,38.80
2022-08-17T06:30:15.978Z,38.00
2022-08-17T06:32:47.468Z,38.90
2022-08-17T06:35:34.556Z,38.80
2022-08-17T06:38:37.024Z,39.10
2022-08-17T06:41:38.128Z,38.60
2022-08-17T06:44:53.396Z,38.70
2022-08-17T06:47:33.969Z,38.50
2022-08-17T06:50:30.932Z,38.50
2022-08-17T06:53:22.578Z,38.60
2022-08-17T06:56:00.305Z,38.30
2022-08-17T06:58:31.323Z,38.30
2022-08-17T07:01:24.252Z,38.40
2022-08-17T07:04:12.634Z,38.60
2022-08-17T07:06:52.410Z,38.40
2022-08-17T07:09:31.259Z,38.40
2022-08-17T07:12:38.401Z,38.50
2022-08-17T07:15:25.369Z,38.30
2022-08-17T07:17:52.486Z,38.30
2022-08-17T07:20:22.434Z,38.30
2022-08-17T07:23:00.255Z,38.30
2022-08-17T07:25:30.713Z,38.30
2022-08-17T07:28:06.033Z,38.20
2022-08-17T07:30:51.948Z,38.30
2022-08-17T07:33:30.936Z,38.20
2022-08-17T07:35:59.296Z,38.30
2022-08-17T07:38:35.466Z,37.80
2022-08-17T07:41:10.887Z,38.40
2022-08-17T07:43:40.944Z,37.80
2022-08-17T07:46:40.949Z,38.30
2022-08-17T07:49:11.099Z,38.40
2022-08-17T07:51:55.404Z,38.50
2022-08-17T07:54:37.644Z,38.50
2022-08-17T07:57:13.666Z,38.10
2022-08-17T07:59:59.926Z,38.80
2022-08-17T08:02:41.374Z,38.70
2022-08-17T08:05:49.370Z,38.20
2022-08-17T08:08:42.161Z,38.90
2022-08-17T08:11:28.283Z,38.10
2022-08-17T08:13:55.306Z,38.30
2022-08-17T08:16:29.858Z,38.80
2022-08-17T08:19:00.859Z,38.30
2022-08-17T08:22:04.514Z,38.30
2022-08-17T08:25:18.589Z,39.00
2022-08-17T08:28:27.355Z,39.00
2022-08-17T08:31:24.526Z,39.10
2022-08-17T08:34:58.678Z,38.40
2022-08-17T08:37:35.547Z,39.20
2022-08-17T08:40:34.965Z,39.20
2022-08-17T08:43:13.746Z,39.10
2022-08-17T08:46:19.641Z,39.10
2022-08-17T08:49:12.515Z,39.30
2022-08-17T08:51:55.687Z,39.30
2022-08-17T08:54:44.312Z,39.30
2022-08-17T08:57:34.085Z,39.10
2022-08-17T09:00:23.003Z,39.10
2022-08-17T09:03:14.331Z,39.10
2022-08-17T09:06:38.532Z,39.30
2022-08-17T09:09:25.715Z,39.30
2022-08-17T09:12:21.240Z,39.20
2022-08-17T09:15:07.159Z,39.20
2022-08-17T09:18:08.873Z,39.30
2022-08-17T09:20:55.876Z,39.30
2022-08-17T09:23:49.655Z,38.50
2022-08-17T09:26:28.033Z,39.20
2022-08-17T09:29:02.517Z,39.20
2022-08-17T09:31:48.706Z,39.20
2022-08-17T09:34:28.188Z,39.40
2022-08-17T09:37:22.950Z,39.40
2022-08-17T09:40:30.482Z,39.30
2022-08-17T09:43:19.341Z,39.40
2022-08-17T09:45:57.875Z,39.30
2022-08-17T09:48:43.771Z,39.50
2022-08-17T09:51:50.273Z,39.70
2022-08-17T09:54:42.386Z,39.70
2022-08-17T09:57:44.052Z,39.70
2022-08-17T10:00:18.822Z,40.10
2022-08-17T10:03:34.360Z,39.50
2022-08-17T10:06:21.795Z,39.70
2022-08-17T10:09:12.374Z,39.80
2022-08-17T10:12:11.105Z,40.40
2022-08-17T10:15:25.511Z,39.80
2022-08-17T10:18:38.890Z,39.90
2022-08-17T10:21:32.087Z,39.80
2022-08-17T10:25:20.693Z,39.20
2022-08-17T10:27:52.717Z,39.90
2022-08-17T10:30:26.815Z,39.20
2022-08-17T10:33:02.776Z,39.80
2022-08-17T10:35:56.106Z,39.80
2022-08-17T10:38:25.373Z,39.90
2022-08-17T10:40:57.261Z,39.80
2022-08-17T10:44:37.462Z,39.90
2022-08-17T10:47:15.010Z,39.90
2022-08-17T10:49:53.668Z,39.90
2022-08-17T10:52:24.827Z,40.10
2022-08-17T10:54:58.264Z,39.90
2022-08-17T10:57:33.877Z,39.50
2022-08-17T11:00:02.538Z,39.50
2022-08-17T11:02:41.671Z,39.50
2022-08-17T11:05:52.215Z,40.40
2022-08-17T11:08:34.067Z,39.70
2022-08-17T11:11:45.414Z,40.30
2022-08-17T11:15:03.212Z,40.40
2022-08-17T11:18:01.860Z,40.50
2022-08-17T11:20:38.180Z,40.60
2022-08-17T11:23:37.809Z,40.50
2022-08-17T11:26:26.165Z,40.60
2022-08-17T11:29:01.468Z,40.90
2022-08-17T11:31:40.408Z,40.70
2022-08-17T11:34:20.111Z,41.00
2022-08-17T11:37:15.182Z,41.10
2022-08-17T11:40:35.418Z,41.10
2022-08-17T11:43:25.410Z,41.30
2022-08-17T11:45:52.562Z,41.00
2022-08-17T11:48:58.143Z,41.10
2022-08-17T11:52:01.167Z,42.00
2022-08-17T11:54:33.266Z,41.70
2022-08-17T11:57:26.514Z,41.60
2022-08-17T12:00:07.548Z,41.80
2022-08-17T12:02:48.267Z,42.00
2022-08-17T12:05:16.868Z,41.30
2022-08-17T12:08:05.738Z,41.80
2022-08-17T12:10:37.024Z,42.50
2022-08-17T12:13:15.728Z,42.20
2022-08-17T12:15:49.595Z,42.30
2022-08-17T12:18:39.468Z,42.30
2022-08-17T12:21:54.991Z,42.30
2022-08-17T12:25:06.028Z,42.40
2022-08-17T12:28:01.353Z,42.40
2022-08-17T12:32:58.606Z,41.50
2022-08-17T12:35:36.044Z,42.20
2022-08-17T12:38:32.091Z,41.40
2022-08-17T12:40:58.333Z,42.10
2022-08-17T12:43:31.166Z,42.00
2022-08-17T12:46:15.288Z,41.30
2022-08-17T12:48:59.267Z,42.00
2022-08-17T12:51:29.138Z,41.40
2022-08-17T12:53:56.767Z,41.30
2022-08-17T12:56:26.243Z,41.90
2022-08-17T12:58:54.447Z,42.00
2022-08-17T13:03:56.194Z,41.30
2022-08-17T13:06:34.241Z,42.50
2022-08-17T13:09:18.482Z,42.00
2022-08-17T13:11:58.364Z,41.50
2022-08-17T13:14:26.481Z,42.10
2022-08-17T13:17:01.837Z,42.10
2022-08-17T13:19:40.332Z,41.50
2022-08-17T13:22:12.906Z,42.00
2022-08-17T13:24:59.191Z,42.20
2022-08-17T13:27:29.236Z,42.30
2022-08-17T13:30:02.257Z,42.10
2022-08-17T13:32:43.721Z,42.00
2022-08-17T13:35:41.086Z,41.40
2022-08-17T13:38:13.574Z,42.20
2022-08-17T13:40:53.152Z,41.60
2022-08-17T13:43:44.428Z,41.80
2022-08-17T13:46:26.612Z,42.70
2022-08-17T13:49:12.013Z,42.60
2022-08-17T13:51:46.237Z,42.70
2022-08-17T13:54:34.519Z,42.70
2022-08-17T13:57:17.065Z,41.90
2022-08-17T13:59:55.887Z,42.40
2022-08-17T14:02:27.227Z,42.50
2022-08-17T14:04:56.507Z,42.50
2022-08-17T14:07:33.696Z,41.90
2022-08-17T14:10:14.059Z,41.80
2022-08-17T14:12:44.143Z,41.70
2022-08-17T14:15:15.611Z,42.30
2022-08-17T14:17:46.142Z,41.80
2022-08-17T14:20:14.362Z,42.40
2022-08-17T14:22:49.476Z,41.90
2022-08-17T14:25:24.787Z,42.00
2022-08-17T14:27:54.161Z,42.80
2022-08-17T14:30:27.000Z,42.80
2022-08-17T14:32:58.010Z,43.50
2022-08-17T14:35:27.855Z,42.90
2022-08-17T14:37:56.105Z,42.90
2022-08-17T14:40:25.266Z,42.90
2022-08-17T14:42:55.496Z,43.00
2022-08-17T14:45:29.653Z,43.10
2022-08-17T14:48:04.156Z,42.30
2022-08-17T14:50:32.131Z,42.40
2022-08-17T14:53:04.594Z,42.90
2022-08-17T14:55:32.606Z,43.00
2022-08-17T14:58:04.196Z,43.00
2022-08-17T15:00:32.258Z,43.00
2022-08-17T15:03:02.055Z,42.40
2022-08-17T15:05:34.335Z,42.90
2022-08-17T15:08:06.262Z,42.90
2022-08-17T15:10:33.557Z,43.40
2022-08-17T15:13:00.880Z,43.10
2022-08-17T15:15:29.096Z,42.70
2022-08-17T15:20:29.611Z,42.30
2022-08-17T15:22:59.825Z,42.20
2022-08-17T15:25:32.115Z,43.00
2022-08-17T15:28:00.901Z,42.80
2022-08-17T15:30:29.149Z,42.20
2022-08-17T15:32:58.590Z,42.60
2022-08-17T15:35:31.229Z,42.10
2022-08-17T15:38:11.574Z,42.70
2022-08-17T15:40:51.052Z,42.50
2022-08-17T15:43:33.933Z,42.00
2022-08-17T15:46:12.156Z,42.50
2022-08-17T15:48:42.344Z,42.50
2022-08-17T15:51:20.497Z,42.50
2022-08-17T15:53:52.233Z,41.80
2022-08-17T15:56:19.997Z,42.40
2022-08-17T15:58:48.671Z,42.70
2022-08-17T16:03:14.687Z,41.80
2022-08-17T16:04:29.779Z,42.20
2022-08-17T16:06:57.090Z,42.40
2022-08-17T16:09:24.143Z,42.30
2022-08-17T16:14:22.646Z,41.50
2022-08-17T16:16:51.106Z,42.00
2022-08-17T16:19:18.103Z,41.50
2022-08-17T16:21:45.188Z,41.50
2022-08-17T16:24:13.257Z,42.00
2022-08-17T16:26:42.646Z,42.00
2022-08-17T16:29:10.191Z,42.20
2022-08-17T16:31:37.865Z,42.10
2022-08-17T16:34:17.388Z,42.00
2022-08-17T16:36:55.598Z,41.90
2022-08-17T16:39:26.310Z,42.10
2022-08-17T16:41:53.563Z,42.00
2022-08-17T16:44:21.929Z,42.10
2022-08-17T16:46:50.350Z,41.50
2022-08-17T16:49:24.498Z,42.20
2022-08-17T16:52:10.590Z,41.60
2022-08-17T16:54:43.816Z,42.10
2022-08-17T16:57:13.400Z,42.20
2022-08-17T16:59:44.883Z,42.20
2022-08-17T17:02:17.137Z,42.40
2022-08-17T17:05:00.024Z,42.40
2022-08-17T17:07:46.167Z,42.50
2022-08-17T17:10:20.042Z,42.40
2022-08-17T17:13:02.368Z,41.70
2022-08-17T17:15:51.415Z,42.20
2022-08-17T17:18:36.570Z,41.70
2022-08-17T17:21:06.464Z,42.30
2022-08-17T17:23:49.844Z,41.70
2022-08-17T17:26:47.068Z,42.40
2022-08-17T17:29:57.125Z,42.50
2022-08-17T17:32:51.068Z,42.40
2022-08-17T17:35:43.749Z,42.50
2022-08-17T17:38:49.866Z,41.70
2022-08-17T17:41:29.077Z,42.40
2022-08-17T17:44:30.135Z,42.30
2022-08-17T17:47:01.623Z,42.40
2022-08-17T17:49:35.413Z,41.70
2022-08-17T17:52:24.051Z,42.90
2022-08-17T17:54:56.992Z,42.40
2022-08-17T17:57:55.777Z,41.80
2022-08-17T18:00:26.116Z,42.40
2022-08-17T18:03:21.052Z,42.50
2022-08-17T18:06:32.251Z,42.50
2022-08-17T18:09:11.184Z,42.50
2022-08-17T18:12:13.097Z,42.50
2022-08-17T18:15:51.710Z,42.50
2022-08-17T18:18:19.047Z,42.50
2022-08-17T18:20:55.823Z,43.00
2022-08-17T18:23:27.971Z,42.00
2022-08-17T18:25:57.101Z,41.90
2022-08-17T18:28:36.381Z,42.00
2022-08-17T18:31:17.531Z,42.60
2022-08-17T18:33:50.764Z,42.70
2022-08-17T18:36:36.428Z,42.60
2022-08-17T18:39:26.476Z,42.70
2022-08-17T18:41:58.988Z,42.00
2022-08-17T18:44:45.993Z,42.00
2022-08-17T18:47:23.020Z,42.60
2022-08-17T18:50:01.996Z,42.00
2022-08-17T18:52:34.355Z,42.70
2022-08-17T18:55:13.499Z,42.70
2022-08-17T18:57:52.558Z,42.70
2022-08-17T19:00:45.594Z,42.80
2022-08-17T19:03:22.740Z,42.80
2022-08-17T19:06:17.514Z,42.90
2022-08-17T19:08:44.541Z,43.00
2022-08-17T19:11:23.979Z,42.80
2022-08-17T19:14:08.001Z,43.60
2022-08-17T19:16:51.224Z,43.00
2022-08-17T19:19:35.621Z,42.20
2022-08-17T19:22:34.976Z,43.10
2022-08-17T19:25:31.692Z,43.00
2022-08-17T19:28:22.372Z,42.40
2022-08-17T19:30:56.579Z,43.10
2022-08-17T19:33:24.470Z,43.00
2022-08-17T19:36:26.162Z,42.90
2022-08-17T19:39:21.295Z,43.10
2022-08-17T19:42:28.809Z,43.20
2022-08-17T19:45:18.222Z,42.40
2022-08-17T19:48:13.549Z,42.50
2022-08-17T19:51:09.217Z,43.10
2022-08-17T19:54:15.085Z,43.00
2022-08-17T19:57:02.846Z,43.10
2022-08-17T19:59:48.899Z,43.10
2022-08-17T20:02:21.117Z,42.90
2022-08-17T20:04:50.860Z,42.40
2022-08-17T20:07:28.820Z,43.00
2022-08-17T20:10:08.016Z,43.00
2022-08-17T20:12:39.975Z,43.00
2022-08-17T20:15:17.951Z,43.00
2022-08-17T20:17:47.678Z,42.50
2022-08-17T20:20:23.366Z,43.00
2022-08-17T20:23:28.701Z,42.50
2022-08-17T20:26:26.889Z,43.10
2022-08-17T20:29:16.030Z,42.50
2022-08-17T20:31:55.171Z,43.20
2022-08-17T20:34:33.448Z,43.10
2022-08-17T20:37:15.313Z,43.10
2022-08-17T20:40:05.615Z,42.40
2022-08-17T20:42:34.471Z,43.00
2022-08-17T20:45:21.273Z,43.00
2022-08-17T20:48:22.467Z,43.00
2022-08-17T20:50:57.034Z,43.00
2022-08-17T20:53:54.756Z,43.10
2022-08-17T20:56:43.718Z,42.40
2022-08-17T20:59:26.044Z,43.20
2022-08-17T21:02:18.716Z,42.50
2022-08-17T21:04:54.797Z,43.10
2022-08-17T21:07:43.176Z,43.10
2022-08-17T21:10:25.762Z,43.10
2022-08-17T21:13:16.535Z,43.10
2022-08-17T21:16:07.604Z,43.10
2022-08-17T21:18:56.709Z,42.50
2022-08-17T21:21:38.386Z,43.10
2022-08-17T21:24:35.653Z,42.40
2022-08-17T21:27:29.063Z,43.20
2022-08-17T21:30:02.088Z,43.20
2022-08-17T21:32:40.437Z,43.20
2022-08-17T21:35:22.821Z,43.00
2022-08-17T21:38:02.454Z,43.20
2022-08-17T21:40:34.047Z,43.10
2022-08-17T21:43:24.553Z,42.60
2022-08-17T21:46:25.057Z,43.20
2022-08-17T21:48:57.183Z,43.30
2022-08-17T21:51:28.909Z,43.20
2022-08-17T21:54:05.027Z,43.20
2022-08-17T21:56:40.634Z,43.20
2022-08-17T21:59:19.856Z,43.10
2022-08-17T22:02:03.945Z,43.20
2022-08-17T22:04:41.518Z,43.30
2022-08-17T22:07:13.717Z,43.20
2022-08-17T22:09:42.506Z,43.20
2022-08-17T22:12:16.163Z,43.60
2022-08-17T22:15:07.211Z,43.30
2022-08-17T22:17:46.437Z,43.30
2022-08-17T22:20:19.302Z,42.60
2022-08-17T22:23:04.896Z,43.20
2022-08-17T22:25:37.467Z,43.30
2022-08-17T22:28:11.519Z,43.20
2022-08-17T22:31:14.662Z,43.40
2022-08-17T22:33:46.906Z,43.40
2022-08-17T22:36:38.962Z,43.40
2022-08-17T22:39:08.735Z,43.60
2022-08-17T22:41:50.879Z,43.50
2022-08-17T22:44:30.105Z,43.50
2022-08-17T22:47:11.413Z,43.30
2022-08-17T22:49:53.584Z,43.40
2022-08-17T22:53:04.104Z,43.60
2022-08-17T22:55:52.275Z,44.20
2022-08-17T22:58:42.815Z,43.50
2022-08-17T23:01:33.291Z,43.50
2022-08-17T23:04:03.991Z,43.60
2022-08-17T23:06:33.767Z,43.60
2022-08-17T23:09:04.008Z,43.00
2022-08-17T23:11:49.757Z,43.50
2022-08-17T23:14:20.242Z,43.70
2022-08-17T23:16:50.226Z,42.90
2022-08-17T23:19:21.491Z,43.60
2022-08-17T23:21:50.983Z,43.60
2022-08-17T23:24:28.278Z,43.60
2022-08-17T23:26:58.087Z,43.60
2022-08-17T23:29:29.325Z,43.50
2022-08-17T23:31:59.908Z,43.60
2022-08-17T23:34:28.599Z,43.00
2022-08-17T23:36:57.004Z,43.00
2022-08-17T23:39:28.099Z,43.60
2022-08-17T23:42:00.858Z,43.00
2022-08-17T23:44:28.987Z,43.60
2022-08-17T23:46:56.864Z,43.60
2022-08-17T23:49:25.046Z,43.70
2022-08-17T23:51:54.814Z,43.70
2022-08-17T23:54:35.046Z,43.70
2022-08-17T23:57:04.713Z,43.70
2022-08-17T23:59:32.901Z,43.70
